sensor_id;sensor_type;location;lat;lon;timestamp;pressure;altitude;pressure_sealevel;temperature;humidity
74633;BME280;63139;52.018;8.552;2022-12-08T00:01:20;99850.31;;;3.17;87.23
74633;BME280;63139;52.018;8.552;2022-12-08T00:03:49;99851.97;;;3.18;87.40
74633;BME280;63139;52.018;8.552;2022-12-08T00:06:25;99851.56;;;3.22;87.55
74633;BME280;63139;52.018;8.552;2022-12-08T00:09:13;99846.06;;;3.25;87.03
74633;BME280;63139;52.018;8.552;2022-12-08T00:11:52;99845.63;;;3.30;86.92
74633;BME280;63139;52.018;8.552;2022-12-08T00:14:26;99842.59;;;3.34;87.37
74633;BME280;63139;52.018;8.552;2022-12-08T00:16:57;99844.00;;;3.38;86.85
74633;BME280;63139;52.018;8.552;2022-12-08T00:19:26;99839.88;;;3.45;86.77
74633;BME280;63139;52.018;8.552;2022-12-08T00:21:54;99835.84;;;3.51;86.60
74633;BME280;63139;52.018;8.552;2022-12-08T00:24:24;99831.19;;;3.55;86.23
74633;BME280;63139;52.018;8.552;2022-12-08T00:26:52;99839.56;;;3.58;86.23
74633;BME280;63139;52.018;8.552;2022-12-08T00:29:20;99823.59;;;3.61;86.05
74633;BME280;63139;52.018;8.552;2022-12-08T00:31:48;99825.25;;;3.62;85.79
74633;BME280;63139;52.018;8.552;2022-12-08T00:34:18;99829.09;;;3.58;85.68
74633;BME280;63139;52.018;8.552;2022-12-08T00:36:46;99821.94;;;3.60;85.88
74633;BME280;63139;52.018;8.552;2022-12-08T00:39:15;99819.06;;;3.54;85.67
74633;BME280;63139;52.018;8.552;2022-12-08T00:41:43;99816.56;;;3.52;85.74
74633;BME280;63139;52.018;8.552;2022-12-08T00:44:28;99813.84;;;3.44;85.66
74633;BME280;63139;52.018;8.552;2022-12-08T00:46:56;99808.34;;;3.37;85.83
74633;BME280;63139;52.018;8.552;2022-12-08T00:49:25;99812.59;;;3.29;85.83
74633;BME280;63139;52.018;8.552;2022-12-08T00:51:53;99807.78;;;3.24;86.41
74633;BME280;63139;52.018;8.552;2022-12-08T00:54:21;99809.44;;;3.16;86.88
74633;BME280;63139;52.018;8.552;2022-12-08T00:56:49;99806.41;;;3.10;86.89
74633;BME280;63139;52.018;8.552;2022-12-08T00:59:17;99811.91;;;3.07;86.94
74633;BME280;63139;52.018;8.552;2022-12-08T01:01:46;99820.72;;;3.06;87.04
74633;BME280;63139;52.018;8.552;2022-12-08T01:04:15;99819.88;;;3.06;87.15
74633;BME280;63139;52.018;8.552;2022-12-08T01:06:45;99812.88;;;3.06;87.80
74633;BME280;63139;52.018;8.552;2022-12-08T01:09:14;99812.47;;;3.11;87.47
74633;BME280;63139;52.018;8.552;2022-12-08T01:11:43;99811.34;;;3.13;87.27
74633;BME280;63139;52.018;8.552;2022-12-08T01:14:11;99810.66;;;3.21;87.44
74633;BME280;63139;52.018;8.552;2022-12-08T01:16:39;99809.59;;;3.24;86.79
74633;BME280;63139;52.018;8.552;2022-12-08T01:19:08;99805.84;;;3.26;87.14
74633;BME280;63139;52.018;8.552;2022-12-08T01:21:37;99813.28;;;3.31;86.95
74633;BME280;63139;52.018;8.552;2022-12-08T01:24:16;99819.22;;;3.33;86.95
74633;BME280;63139;52.018;8.552;2022-12-08T01:26:45;99818.22;;;3.34;86.79
74633;BME280;63139;52.018;8.552;2022-12-08T01:29:13;99811.78;;;3.38;86.85
74633;BME280;63139;52.018;8.552;2022-12-08T01:31:41;99815.75;;;3.42;86.63
74633;BME280;63139;52.018;8.552;2022-12-08T01:34:09;99812.75;;;3.46;86.58
74633;BME280;63139;52.018;8.552;2022-12-08T01:36:37;99811.47;;;3.50;86.27
74633;BME280;63139;52.018;8.552;2022-12-08T01:39:06;99806.69;;;3.56;86.55
74633;BME280;63139;52.018;8.552;2022-12-08T01:41:38;99801.97;;;3.59;86.57
74633;BME280;63139;52.018;8.552;2022-12-08T01:47:10;99804.72;;;3.67;85.83
74633;BME280;63139;52.018;8.552;2022-12-08T01:49:38;99795.75;;;3.70;85.79
74633;BME280;63139;52.018;8.552;2022-12-08T01:52:10;99805.66;;;3.76;85.63
74633;BME280;63139;52.018;8.552;2022-12-08T01:54:43;99807.16;;;3.78;85.57
74633;BME280;63139;52.018;8.552;2022-12-08T01:57:17;99791.44;;;3.78;85.27
74633;BME280;63139;52.018;8.552;2022-12-08T01:59:52;99794.06;;;3.78;85.21
74633;BME280;63139;52.018;8.552;2022-12-08T02:02:21;99793.53;;;3.75;85.14
74633;BME280;63139;52.018;8.552;2022-12-08T02:04:50;99793.41;;;3.76;85.46
74633;BME280;63139;52.018;8.552;2022-12-08T02:07:19;99791.63;;;3.77;85.29
74633;BME280;63139;52.018;8.552;2022-12-08T02:09:47;99790.66;;;3.78;85.63
74633;BME280;63139;52.018;8.552;2022-12-08T02:12:16;99783.47;;;3.80;85.42
74633;BME280;63139;52.018;8.552;2022-12-08T02:14:44;99779.44;;;3.85;85.35
74633;BME280;63139;52.018;8.552;2022-12-08T02:17:23;99780.25;;;3.86;85.03
74633;BME280;63139;52.018;8.552;2022-12-08T02:20:27;99770.63;;;3.86;85.10
74633;BME280;63139;52.018;8.552;2022-12-08T02:23:05;99765.25;;;3.88;84.87
74633;BME280;63139;52.018;8.552;2022-12-08T02:25:43;99769.53;;;3.89;85.02
74633;BME280;63139;52.018;8.552;2022-12-08T02:28:37;99767.72;;;3.89;84.79
74633;BME280;63139;52.018;8.552;2022-12-08T02:31:19;99764.00;;;3.92;85.01
74633;BME280;63139;52.018;8.552;2022-12-08T02:34:12;99757.63;;;3.95;85.05
74633;BME280;63139;52.018;8.552;2022-12-08T02:36:48;99754.88;;;3.96;84.82
74633;BME280;63139;52.018;8.552;2022-12-08T02:39:34;99755.72;;;3.97;84.55
74633;BME280;63139;52.018;8.552;2022-12-08T02:42:09;99753.91;;;3.97;84.79
74633;BME280;63139;52.018;8.552;2022-12-08T02:44:42;99750.34;;;3.98;84.45
74633;BME280;63139;52.018;8.552;2022-12-08T02:47:16;99750.19;;;4.00;84.46
74633;BME280;63139;52.018;8.552;2022-12-08T02:49:46;99750.03;;;4.01;84.37
74633;BME280;63139;52.018;8.552;2022-12-08T02:52:39;99744.66;;;4.03;84.20
74633;BME280;63139;52.018;8.552;2022-12-08T02:55:13;99744.66;;;4.03;84.30
74633;BME280;63139;52.018;8.552;2022-12-08T02:58:04;99746.06;;;3.97;83.92
74633;BME280;63139;52.018;8.552;2022-12-08T03:00:50;99747.03;;;3.96;83.97
74633;BME280;63139;52.018;8.552;2022-12-08T03:03:28;99735.72;;;3.96;83.84
74633;BME280;63139;52.018;8.552;2022-12-08T03:06:04;99740.69;;;3.99;83.96
74633;BME280;63139;52.018;8.552;2022-12-08T03:08:42;99722.94;;;3.93;83.47
74633;BME280;63139;52.018;8.552;2022-12-08T03:11:19;99714.09;;;3.94;83.62
74633;BME280;63139;52.018;8.552;2022-12-08T03:13:50;99713.97;;;3.95;83.82
74633;BME280;63139;52.018;8.552;2022-12-08T03:16:22;99713.00;;;3.96;83.78
74633;BME280;63139;52.018;8.552;2022-12-08T03:18:53;99715.09;;;3.93;83.82
74633;BME280;63139;52.018;8.552;2022-12-08T03:21:24;99706.78;;;3.97;83.91
74633;BME280;63139;52.018;8.552;2022-12-08T03:23:53;99701.69;;;3.96;83.81
74633;BME280;63139;52.018;8.552;2022-12-08T03:26:27;99704.69;;;4.01;83.61
74633;BME280;63139;52.018;8.552;2022-12-08T03:28:57;99701.78;;;4.04;83.67
74633;BME280;63139;52.018;8.552;2022-12-08T03:31:27;99693.94;;;4.04;83.26
74633;BME280;63139;52.018;8.552;2022-12-08T03:33:58;99692.28;;;4.03;83.17
74633;BME280;63139;52.018;8.552;2022-12-08T03:36:28;99689.66;;;4.03;83.45
74633;BME280;63139;52.018;8.552;2022-12-08T03:38:56;99691.19;;;4.05;83.27
74633;BME280;63139;52.018;8.552;2022-12-08T03:41:24;99678.78;;;4.07;83.70
74633;BME280;63139;52.018;8.552;2022-12-08T03:43:54;99681.22;;;4.09;83.58
74633;BME280;63139;52.018;8.552;2022-12-08T03:46:24;99676.94;;;4.08;83.79
74633;BME280;63139;52.018;8.552;2022-12-08T03:48:51;99672.53;;;4.08;83.64
74633;BME280;63139;52.018;8.552;2022-12-08T03:51:20;99672.97;;;4.04;83.43
74633;BME280;63139;52.018;8.552;2022-12-08T03:53:49;99668.72;;;4.03;83.70
74633;BME280;63139;52.018;8.552;2022-12-08T03:56:21;99657.28;;;4.04;83.58
74633;BME280;63139;52.018;8.552;2022-12-08T03:58:50;99658.09;;;4.04;83.75
74633;BME280;63139;52.018;8.552;2022-12-08T04:01:18;99650.94;;;4.06;83.87
74633;BME280;63139;52.018;8.552;2022-12-08T04:03:47;99650.47;;;4.11;83.94
74633;BME280;63139;52.018;8.552;2022-12-08T04:06:15;99651.31;;;4.11;83.88
74633;BME280;63139;52.018;8.552;2022-12-08T04:08:43;99649.38;;;4.13;84.01
74633;BME280;63139;52.018;8.552;2022-12-08T04:11:12;99645.78;;;4.14;83.68
74633;BME280;63139;52.018;8.552;2022-12-08T04:13:40;99647.94;;;4.19;84.13
74633;BME280;63139;52.018;8.552;2022-12-08T04:16:14;99640.09;;;4.19;83.97
74633;BME280;63139;52.018;8.552;2022-12-08T04:18:42;99636.78;;;4.17;83.82
74633;BME280;63139;52.018;8.552;2022-12-08T04:21:10;99642.03;;;4.17;84.10
74633;BME280;63139;52.018;8.552;2022-12-08T04:23:38;99636.63;;;4.18;83.88
74633;BME280;63139;52.018;8.552;2022-12-08T04:26:06;99629.06;;;4.15;84.06
74633;BME280;63139;52.018;8.552;2022-12-08T04:28:36;99628.78;;;4.18;83.93
74633;BME280;63139;52.018;8.552;2022-12-08T04:31:04;99626.31;;;4.17;84.06
74633;BME280;63139;52.018;8.552;2022-12-08T04:33:32;99628.50;;;4.21;84.28
74633;BME280;63139;52.018;8.552;2022-12-08T04:36:00;99619.00;;;4.20;83.71
74633;BME280;63139;52.018;8.552;2022-12-08T04:38:28;99616.22;;;4.22;84.44
74633;BME280;63139;52.018;8.552;2022-12-08T04:40:56;99614.41;;;4.22;84.07
74633;BME280;63139;52.018;8.552;2022-12-08T04:43:24;99617.56;;;4.26;83.78
74633;BME280;63139;52.018;8.552;2022-12-08T04:45:53;99615.47;;;4.29;84.22
74633;BME280;63139;52.018;8.552;2022-12-08T04:48:21;99612.69;;;4.31;83.82
74633;BME280;63139;52.018;8.552;2022-12-08T04:50:49;99619.91;;;4.29;83.97
74633;BME280;63139;52.018;8.552;2022-12-08T04:53:18;99612.19;;;4.27;83.64
74633;BME280;63139;52.018;8.552;2022-12-08T04:55:46;99605.00;;;4.29;83.85
74633;BME280;63139;52.018;8.552;2022-12-08T04:58:17;99615.31;;;4.31;83.97
74633;BME280;63139;52.018;8.552;2022-12-08T05:00:46;99609.41;;;4.29;84.03
74633;BME280;63139;52.018;8.552;2022-12-08T05:03:16;99612.88;;;4.29;84.05
74633;BME280;63139;52.018;8.552;2022-12-08T05:05:52;99605.00;;;4.29;84.03
74633;BME280;63139;52.018;8.552;2022-12-08T05:08:20;99611.03;;;4.30;83.85
74633;BME280;63139;52.018;8.552;2022-12-08T05:10:47;99596.00;;;4.32;84.21
74633;BME280;63139;52.018;8.552;2022-12-08T05:13:15;99604.81;;;4.31;84.14
74633;BME280;63139;52.018;8.552;2022-12-08T05:15:43;99604.69;;;4.33;84.03
74633;BME280;63139;52.018;8.552;2022-12-08T05:18:11;99605.78;;;4.30;83.92
74633;BME280;63139;52.018;8.552;2022-12-08T05:20:40;99607.75;;;4.28;84.08
74633;BME280;63139;52.018;8.552;2022-12-08T05:23:08;99601.69;;;4.27;84.38
74633;BME280;63139;52.018;8.552;2022-12-08T05:25:36;99609.69;;;4.26;83.88
74633;BME280;63139;52.018;8.552;2022-12-08T05:28:04;99598.53;;;4.24;83.90
74633;BME280;63139;52.018;8.552;2022-12-08T05:30:51;99603.13;;;4.22;84.08
74633;BME280;63139;52.018;8.552;2022-12-08T05:33:19;99597.22;;;4.20;83.91
74633;BME280;63139;52.018;8.552;2022-12-08T05:35:49;99595.56;;;4.19;84.12
74633;BME280;63139;52.018;8.552;2022-12-08T05:38:16;99589.63;;;4.17;83.76
74633;BME280;63139;52.018;8.552;2022-12-08T05:40:44;99587.97;;;4.16;83.79
74633;BME280;63139;52.018;8.552;2022-12-08T05:43:12;99585.38;;;4.16;84.16
74633;BME280;63139;52.018;8.552;2022-12-08T05:45:40;99588.31;;;4.13;83.91
74633;BME280;63139;52.018;8.552;2022-12-08T05:48:08;99582.25;;;4.12;84.06
74633;BME280;63139;52.018;8.552;2022-12-08T05:50:36;99578.84;;;4.02;83.57
74633;BME280;63139;52.018;8.552;2022-12-08T05:53:05;99587.25;;;4.06;84.04
74633;BME280;63139;52.018;8.552;2022-12-08T05:55:33;99585.38;;;3.98;83.50
74633;BME280;63139;52.018;8.552;2022-12-08T05:58:01;99580.00;;;4.00;83.57
74633;BME280;63139;52.018;8.552;2022-12-08T06:00:33;99579.59;;;3.95;83.90
74633;BME280;63139;52.018;8.552;2022-12-08T06:03:01;99583.03;;;3.95;83.88
74633;BME280;63139;52.018;8.552;2022-12-08T06:05:31;99579.09;;;3.91;84.10
74633;BME280;63139;52.018;8.552;2022-12-08T06:07:59;99575.31;;;3.94;84.45
74633;BME280;63139;52.018;8.552;2022-12-08T06:10:28;99576.31;;;3.93;84.48
74633;BME280;63139;52.018;8.552;2022-12-08T06:12:56;99570.63;;;3.97;84.67
74633;BME280;63139;52.018;8.552;2022-12-08T06:15:24;99565.25;;;3.99;84.40
74633;BME280;63139;52.018;8.552;2022-12-08T06:17:52;99570.16;;;4.02;84.94
74633;BME280;63139;52.018;8.552;2022-12-08T06:20:20;99565.91;;;4.01;84.81
74633;BME280;63139;52.018;8.552;2022-12-08T06:22:47;99567.28;;;4.05;84.84
74633;BME280;63139;52.018;8.552;2022-12-08T06:25:15;99564.19;;;4.09;84.89
74633;BME280;63139;52.018;8.552;2022-12-08T06:27:45;99565.84;;;4.10;84.72
74633;BME280;63139;52.018;8.552;2022-12-08T06:30:13;99555.38;;;4.10;84.96
74633;BME280;63139;52.018;8.552;2022-12-08T06:32:41;99560.19;;;4.15;84.81
74633;BME280;63139;52.018;8.552;2022-12-08T06:35:09;99561.44;;;4.11;85.02
74633;BME280;63139;52.018;8.552;2022-12-08T06:37:37;99563.06;;;4.12;84.55
74633;BME280;63139;52.018;8.552;2022-12-08T06:40:06;99561.16;;;4.14;84.85
74633;BME280;63139;52.018;8.552;2022-12-08T06:42:34;99564.88;;;4.11;85.03
74633;BME280;63139;52.018;8.552;2022-12-08T06:45:15;99563.59;;;4.15;85.19
74633;BME280;63139;52.018;8.552;2022-12-08T06:47:43;99562.78;;;4.15;84.86
74633;BME280;63139;52.018;8.552;2022-12-08T06:50:12;99564.59;;;4.14;84.61
74633;BME280;63139;52.018;8.552;2022-12-08T06:52:40;99567.56;;;4.19;85.05
74633;BME280;63139;52.018;8.552;2022-12-08T06:55:23;99568.41;;;4.20;84.57
74633;BME280;63139;52.018;8.552;2022-12-08T06:58:13;99566.59;;;4.20;84.60
74633;BME280;63139;52.018;8.552;2022-12-08T07:00:42;99567.94;;;4.24;84.80
74633;BME280;63139;52.018;8.552;2022-12-08T07:03:11;99570.56;;;4.24;84.78
74633;BME280;63139;52.018;8.552;2022-12-08T07:05:40;99573.50;;;4.21;84.29
74633;BME280;63139;52.018;8.552;2022-12-08T07:08:08;99573.31;;;4.23;84.61
74633;BME280;63139;52.018;8.552;2022-12-08T07:10:36;99579.25;;;4.25;84.38
74633;BME280;63139;52.018;8.552;2022-12-08T07:13:04;99577.09;;;4.20;84.44
74633;BME280;63139;52.018;8.552;2022-12-08T07:15:31;99579.38;;;4.23;84.56
74633;BME280;63139;52.018;8.552;2022-12-08T07:18:01;99577.44;;;4.25;84.92
74633;BME280;63139;52.018;8.552;2022-12-08T07:20:29;99578.56;;;4.23;84.63
74633;BME280;63139;52.018;8.552;2022-12-08T07:22:56;99581.16;;;4.23;84.37
74633;BME280;63139;52.018;8.552;2022-12-08T07:25:24;99586.59;;;4.21;84.70
74633;BME280;63139;52.018;8.552;2022-12-08T07:27:52;99575.09;;;4.22;84.65
74633;BME280;63139;52.018;8.552;2022-12-08T07:30:20;99575.94;;;4.23;84.56
74633;BME280;63139;52.018;8.552;2022-12-08T07:32:48;99585.44;;;4.24;84.55
74633;BME280;63139;52.018;8.552;2022-12-08T07:35:17;99581.03;;;4.24;84.78
74633;BME280;63139;52.018;8.552;2022-12-08T07:37:45;99576.75;;;4.23;84.71
74633;BME280;63139;52.018;8.552;2022-12-08T07:40:13;99582.47;;;4.19;84.36
74633;BME280;63139;52.018;8.552;2022-12-08T07:42:41;99582.19;;;4.22;84.67
74633;BME280;63139;52.018;8.552;2022-12-08T07:45:09;99573.50;;;4.21;84.50
74633;BME280;63139;52.018;8.552;2022-12-08T07:47:37;99570.88;;;4.21;84.74
74633;BME280;63139;52.018;8.552;2022-12-08T07:50:06;99584.13;;;4.20;84.34
74633;BME280;63139;52.018;8.552;2022-12-08T07:52:35;99581.78;;;4.17;84.52
74633;BME280;63139;52.018;8.552;2022-12-08T07:55:04;99585.75;;;4.21;84.51
74633;BME280;63139;52.018;8.552;2022-12-08T07:57:32;99592.34;;;4.25;84.76
74633;BME280;63139;52.018;8.552;2022-12-08T07:59:59;99584.34;;;4.26;84.38
74633;BME280;63139;52.018;8.552;2022-12-08T08:02:37;99584.34;;;4.26;84.56
74633;BME280;63139;52.018;8.552;2022-12-08T08:05:05;99579.91;;;4.27;84.25
74633;BME280;63139;52.018;8.552;2022-12-08T08:07:34;99577.44;;;4.25;84.41
74633;BME280;63139;52.018;8.552;2022-12-08T08:10:05;99580.97;;;4.34;84.61
74633;BME280;63139;52.018;8.552;2022-12-08T08:12:33;99585.38;;;4.34;84.44
74633;BME280;63139;52.018;8.552;2022-12-08T08:15:03;99577.66;;;4.32;84.03
74633;BME280;63139;52.018;8.552;2022-12-08T08:17:33;99579.31;;;4.33;83.93
74633;BME280;63139;52.018;8.552;2022-12-08T08:20:02;99577.50;;;4.34;83.75
74633;BME280;63139;52.018;8.552;2022-12-08T08:22:34;99581.78;;;4.35;84.05
74633;BME280;63139;52.018;8.552;2022-12-08T08:25:04;99579.03;;;4.36;83.92
74633;BME280;63139;52.018;8.552;2022-12-08T08:27:32;99586.88;;;4.36;84.03
74633;BME280;63139;52.018;8.552;2022-12-08T08:29:59;99585.75;;;4.39;83.52
74633;BME280;63139;52.018;8.552;2022-12-08T08:32:31;99594.97;;;4.43;83.97
74633;BME280;63139;52.018;8.552;2022-12-08T08:35:00;99582.81;;;4.42;83.87
74633;BME280;63139;52.018;8.552;2022-12-08T08:37:28;99593.88;;;4.53;83.62
74633;BME280;63139;52.018;8.552;2022-12-08T08:39:55;99592.22;;;4.52;83.81
74633;BME280;63139;52.018;8.552;2022-12-08T08:42:26;99602.44;;;4.55;83.28
74633;BME280;63139;52.018;8.552;2022-12-08T08:44:53;99592.31;;;4.60;83.29
74633;BME280;63139;52.018;8.552;2022-12-08T08:47:21;99600.03;;;4.62;83.32
74633;BME280;63139;52.018;8.552;2022-12-08T08:49:49;99596.28;;;4.64;83.16
74633;BME280;63139;52.018;8.552;2022-12-08T08:52:17;99593.50;;;4.66;82.86
74633;BME280;63139;52.018;8.552;2022-12-08T08:54:45;99598.59;;;4.67;83.16
74633;BME280;63139;52.018;8.552;2022-12-08T08:57:12;99597.47;;;4.70;82.94
74633;BME280;63139;52.018;8.552;2022-12-08T08:59:41;99605.47;;;4.68;82.84
74633;BME280;63139;52.018;8.552;2022-12-08T09:02:14;99593.19;;;4.69;82.71
74633;BME280;63139;52.018;8.552;2022-12-08T09:04:43;99598.97;;;4.73;82.67
74633;BME280;63139;52.018;8.552;2022-12-08T09:07:11;99603.38;;;4.72;82.67
74633;BME280;63139;52.018;8.552;2022-12-08T09:09:40;99602.84;;;4.68;82.71
74633;BME280;63139;52.018;8.552;2022-12-08T09:12:09;99604.72;;;4.76;82.71
74633;BME280;63139;52.018;8.552;2022-12-08T09:14:37;99605.41;;;4.78;82.17
74633;BME280;63139;52.018;8.552;2022-12-08T09:17:06;99605.09;;;4.81;82.55
74633;BME280;63139;52.018;8.552;2022-12-08T09:19:35;99601.66;;;4.81;82.31
74633;BME280;63139;52.018;8.552;2022-12-08T09:22:04;99599.47;;;4.76;81.98
74633;BME280;63139;52.018;8.552;2022-12-08T09:24:32;99610.03;;;4.84;81.92
74633;BME280;63139;52.018;8.552;2022-12-08T09:27:00;99603.81;;;4.85;82.13
74633;BME280;63139;52.018;8.552;2022-12-08T09:29:28;99616.63;;;4.88;82.01
74633;BME280;63139;52.018;8.552;2022-12-08T09:32:01;99619.75;;;4.92;81.87
74633;BME280;63139;52.018;8.552;2022-12-08T09:34:31;99619.91;;;4.90;82.13
74633;BME280;63139;52.018;8.552;2022-12-08T09:36:58;99619.91;;;4.90;81.96
74633;BME280;63139;52.018;8.552;2022-12-08T09:39:26;99612.78;;;4.83;81.68
74633;BME280;63139;52.018;8.552;2022-12-08T09:41:58;99616.72;;;4.79;81.40
74633;BME280;63139;52.018;8.552;2022-12-08T09:44:42;99613.31;;;4.86;82.18
74633;BME280;63139;52.018;8.552;2022-12-08T09:47:20;99621.69;;;4.90;81.49
74633;BME280;63139;52.018;8.552;2022-12-08T09:49:57;99612.22;;;4.89;81.54
74633;BME280;63139;52.018;8.552;2022-12-08T09:52:29;99616.25;;;4.83;81.46
74633;BME280;63139;52.018;8.552;2022-12-08T09:55:02;99612.78;;;4.83;81.87
74633;BME280;63139;52.018;8.552;2022-12-08T09:57:31;99613.31;;;4.86;81.88
74633;BME280;63139;52.018;8.552;2022-12-08T10:00:02;99616.31;;;4.91;82.11
74633;BME280;63139;52.018;8.552;2022-12-08T10:02:31;99616.44;;;4.90;81.53
74633;BME280;63139;52.018;8.552;2022-12-08T10:05:00;99612.72;;;4.92;81.17
74633;BME280;63139;52.018;8.552;2022-12-08T10:07:37;99609.47;;;4.98;81.52
74633;BME280;63139;52.018;8.552;2022-12-08T10:10:20;99617.03;;;5.01;81.54
74633;BME280;63139;52.018;8.552;2022-12-08T10:12:54;99616.88;;;5.03;81.49
74633;BME280;63139;52.018;8.552;2022-12-08T10:15:35;99611.03;;;5.09;81.43
74633;BME280;63139;52.018;8.552;2022-12-08T10:18:12;99605.81;;;5.17;80.77
74633;BME280;63139;52.018;8.552;2022-12-08T10:20:44;99608.78;;;5.22;80.94
74633;BME280;63139;52.018;8.552;2022-12-08T10:23:20;99604.22;;;5.24;80.48
74633;BME280;63139;52.018;8.552;2022-12-08T10:25:52;99600.66;;;5.33;80.51
74633;BME280;63139;52.018;8.552;2022-12-08T10:28:22;99596.63;;;5.47;80.77
74633;BME280;63139;52.018;8.552;2022-12-08T10:30:50;99599.13;;;5.57;80.60
74633;BME280;63139;52.018;8.552;2022-12-08T10:33:20;99593.88;;;5.57;80.10
74633;BME280;63139;52.018;8.552;2022-12-08T10:35:51;99599.44;;;5.54;80.60
74633;BME280;63139;52.018;8.552;2022-12-08T10:38:22;99591.06;;;5.50;79.90
74633;BME280;63139;52.018;8.552;2022-12-08T10:40:51;99588.09;;;5.45;80.12
74633;BME280;63139;52.018;8.552;2022-12-08T10:43:23;99597.75;;;5.44;79.86
74633;BME280;63139;52.018;8.552;2022-12-08T10:45:52;99589.25;;;5.51;79.64
74633;BME280;63139;52.018;8.552;2022-12-08T10:48:21;99594.53;;;5.59;79.92
74633;BME280;63139;52.018;8.552;2022-12-08T10:50:55;99587.59;;;5.50;79.12
74633;BME280;63139;52.018;8.552;2022-12-08T10:53:25;99591.19;;;5.48;79.78
74633;BME280;63139;52.018;8.552;2022-12-08T10:56:05;99580.44;;;5.60;79.14
74633;BME280;63139;52.018;8.552;2022-12-08T10:58:35;99577.00;;;5.67;79.78
74633;BME280;63139;52.018;8.552;2022-12-08T11:01:10;99577.34;;;5.72;79.18
74633;BME280;63139;52.018;8.552;2022-12-08T11:03:44;99574.72;;;5.72;79.40
74633;BME280;63139;52.018;8.552;2022-12-08T11:06:17;99574.88;;;5.71;79.06
74633;BME280;63139;52.018;8.552;2022-12-08T11:08:48;99576.88;;;5.69;79.03
74633;BME280;63139;52.018;8.552;2022-12-08T11:11:18;99580.31;;;5.69;78.15
74633;BME280;63139;52.018;8.552;2022-12-08T11:13:54;99591.66;;;5.78;79.06
74633;BME280;63139;52.018;8.552;2022-12-08T11:16:22;99586.59;;;5.84;79.17
74633;BME280;63139;52.018;8.552;2022-12-08T11:18:56;99588.91;;;5.88;79.34
74633;BME280;63139;52.018;8.552;2022-12-08T11:21:34;99576.94;;;5.93;78.79
74633;BME280;63139;52.018;8.552;2022-12-08T11:24:20;99579.41;;;5.95;77.49
74633;BME280;63139;52.018;8.552;2022-12-08T11:26:52;99574.69;;;5.98;77.30
74633;BME280;63139;52.018;8.552;2022-12-08T11:29:20;99582.53;;;5.90;76.92
74633;BME280;63139;52.018;8.552;2022-12-08T11:31:51;99570.72;;;5.94;77.29
74633;BME280;63139;52.018;8.552;2022-12-08T11:34:28;99580.91;;;5.97;76.36
74633;BME280;63139;52.018;8.552;2022-12-08T11:36:59;99572.50;;;5.94;77.44
74633;BME280;63139;52.018;8.552;2022-12-08T11:39:29;99574.00;;;5.96;77.81
74633;BME280;63139;52.018;8.552;2022-12-08T11:42:00;99569.41;;;5.98;77.57
74633;BME280;63139;52.018;8.552;2022-12-08T11:44:34;99571.72;;;6.01;77.21
74633;BME280;63139;52.018;8.552;2022-12-08T11:47:06;99566.00;;;6.06;76.97
74633;BME280;63139;52.018;8.552;2022-12-08T11:49:38;99563.03;;;6.09;76.92
74633;BME280;63139;52.018;8.552;2022-12-08T11:52:17;99557.78;;;6.17;76.13
74633;BME280;63139;52.018;8.552;2022-12-08T11:54:51;99556.94;;;6.16;76.33
74633;BME280;63139;52.018;8.552;2022-12-08T11:57:23;99549.59;;;6.20;76.76
74633;BME280;63139;52.018;8.552;2022-12-08T11:59:55;99557.13;;;6.23;76.72
74633;BME280;63139;52.018;8.552;2022-12-08T12:02:25;99555.31;;;6.15;76.81
74633;BME280;63139;52.018;8.552;2022-12-08T12:04:58;99562.19;;;6.08;76.71
74633;BME280;63139;52.018;8.552;2022-12-08T12:07:40;99556.47;;;6.13;76.77
74633;BME280;63139;52.018;8.552;2022-12-08T12:10:42;99553.69;;;6.14;76.22
74633;BME280;63139;52.018;8.552;2022-12-08T12:13:27;99563.38;;;6.14;75.94
74633;BME280;63139;52.018;8.552;2022-12-08T12:19:00;99556.31;;;6.14;76.38
74633;BME280;63139;52.018;8.552;2022-12-08T12:21:33;99551.69;;;6.08;76.39
74633;BME280;63139;52.018;8.552;2022-12-08T12:24:06;99553.50;;;6.08;76.74
74633;BME280;63139;52.018;8.552;2022-12-08T12:26:38;99560.88;;;6.04;76.82
74633;BME280;63139;52.018;8.552;2022-12-08T12:29:18;99552.50;;;6.01;76.95
74633;BME280;63139;52.018;8.552;2022-12-08T12:31:48;99551.50;;;6.02;77.11
74633;BME280;63139;52.018;8.552;2022-12-08T12:34:20;99558.91;;;5.98;76.90
74633;BME280;63139;52.018;8.552;2022-12-08T12:36:52;99556.13;;;5.92;76.67
74633;BME280;63139;52.018;8.552;2022-12-08T12:39:26;99558.34;;;5.86;76.41
74633;BME280;63139;52.018;8.552;2022-12-08T12:41:57;99562.44;;;5.81;76.33
74633;BME280;63139;52.018;8.552;2022-12-08T12:44:38;99566.06;;;5.80;76.82
74633;BME280;63139;52.018;8.552;2022-12-08T12:47:11;99560.47;;;5.75;76.50
74633;BME280;63139;52.018;8.552;2022-12-08T12:50:05;99560.28;;;5.68;76.31
74633;BME280;63139;52.018;8.552;2022-12-08T12:52:38;99559.44;;;5.60;77.15
74633;BME280;63139;52.018;8.552;2022-12-08T12:55:22;99557.44;;;5.54;76.93
74633;BME280;63139;52.018;8.552;2022-12-08T12:57:52;99567.56;;;5.48;77.35
74633;BME280;63139;52.018;8.552;2022-12-08T13:00:22;99574.44;;;5.41;77.79
74633;BME280;63139;52.018;8.552;2022-12-08T13:02:51;99567.72;;;5.39;78.00
74633;BME280;63139;52.018;8.552;2022-12-08T13:05:22;99566.22;;;5.36;77.70
74633;BME280;63139;52.018;8.552;2022-12-08T13:07:53;99569.81;;;5.35;77.72
74633;BME280;63139;52.018;8.552;2022-12-08T13:10:26;99575.75;;;5.37;78.26
74633;BME280;63139;52.018;8.552;2022-12-08T13:13:05;99572.81;;;5.40;78.11
74633;BME280;63139;52.018;8.552;2022-12-08T13:15:35;99566.41;;;5.43;78.06
74633;BME280;63139;52.018;8.552;2022-12-08T13:18:05;99573.97;;;5.46;78.09
74633;BME280;63139;52.018;8.552;2022-12-08T13:20:40;99564.75;;;5.42;77.45
74633;BME280;63139;52.018;8.552;2022-12-08T13:23:25;99571.00;;;5.41;78.03
74633;BME280;63139;52.018;8.552;2022-12-08T13:26:14;99568.84;;;5.36;77.68
74633;BME280;63139;52.018;8.552;2022-12-08T13:29:04;99563.13;;;5.33;77.80
74633;BME280;63139;52.018;8.552;2022-12-08T13:31:41;99563.13;;;5.33;77.51
74633;BME280;63139;52.018;8.552;2022-12-08T13:34:19;99560.97;;;5.36;77.43
74633;BME280;63139;52.018;8.552;2022-12-08T13:36:56;99559.03;;;5.38;77.71
74633;BME280;63139;52.018;8.552;2022-12-08T13:39:29;99554.22;;;5.34;77.95